This is the latest recevied weather packets stored in our database for station/object OK1KZE-6. If no packets are shown the sender has not sent any weather packets the latest 1 day(s).
| Time | Temp. | Humidity | Pressure | Rain* | Wind** | Luminosity | Snow |
|---|---|---|---|---|---|---|---|
| 1836274681 | 15° C | 81% | 1024.2 hPa | - | 4.02 m/s, 167° | - | - |
| 1836274530 | 14.44° C | 82% | 1023.8 hPa | - | 4.02 m/s, 170° | - | - |
| 1836274380 | 15° C | 80% | 1024.2 hPa | - | 3.13 m/s, 173° | - | - |
| 1836274231 | 15° C | 81% | 1023.9 hPa | - | 4.02 m/s, 170° | - | - |
| 1836274080 | 15.56° C | 79% | 1024.4 hPa | - | 2.68 m/s, 172° | - | - |
| 1778013607 | 13.89° C | 92% | 1008.4 hPa | - | 2.24 m/s, 217° | - | - |
| 1778013307 | 13.89° C | 89% | 1008 hPa | - | 3.13 m/s, 216° | - | - |
| 1778013009 | 14.44° C | 82% | 1007.5 hPa | - | 0 m/s | - | - |
| 1778012708 | 15.56° C | 75% | 1007.6 hPa | - | 2.24 m/s, 323° | - | - |
| 1778012408 | 16.67° C | 71% | 1007.6 hPa | - | 1.34 m/s, 278° | - | - |
| 1778012108 | 16.67° C | 67% | 1007.1 hPa | - | 3.13 m/s, 320° | - | - |
| 1778011807 | 16.67° C | 65% | 1007.1 hPa | - | 2.24 m/s, 310° | - | - |
| 1778011509 | 16.67° C | 65% | 1007 hPa | - | 0.89 m/s, 311° | - | - |
| 1778011208 | 16.67° C | 65% | 1007.3 hPa | - | 1.79 m/s, 229° | - | - |
| 1778010906 | 16.67° C | 66% | 1007.3 hPa | - | 1.34 m/s, 192° | - | - |
| 1778010608 | 16.67° C | 65% | 1007 hPa | - | 1.79 m/s, 103° | - | - |
| 1778010308 | 16.67° C | 68% | 1007.2 hPa | - | 1.79 m/s, 92° | - | - |
| 1778010007 | 15.56° C | 71% | 1007.1 hPa | - | 4.47 m/s, 209° | - | - |
| 1778009708 | 16.11° C | 70% | 1006.6 hPa | - | 0.89 m/s, 89° | - | - |
| 1778009108 | 16.11° C | 69% | 1006.5 hPa | - | 6.71 m/s, 73° | - | - |
| 1778008807 | 16.11° C | 69% | 1006.2 hPa | - | 5.81 m/s, 75° | - | - |
| 1778008508 | 16.67° C | 68% | 1006.4 hPa | - | 4.92 m/s, 81° | - | - |
| 1778008207 | 16.67° C | 67% | 1006.4 hPa | - | 7.6 m/s, 81° | - | - |
| 1778007907 | 16.67° C | 66% | 1006.2 hPa | - | 7.6 m/s, 83° | - | - |
| 1778007607 | 17.22° C | 65% | 1006.4 hPa | - | 7.6 m/s, 85° | - | - |
* Rain since midnight (hover to see other rain measurements)
** Current wind speed in m/s (hover to see current wind gust speed)